Time;durP1;ratioP1;P1;durP2;ratioP2;P2;SDS_P1;SDS_P2;PMS_P1;PMS_P2;Temp;Humidity;BMP_temperature;BMP_pressure;BME280_temperature;BME280_humidity;BME280_pressure;Samples;Min_cycle;Max_cycle;Signal;HPM_P1;HPM_P2
2022/10/31 00:01:57;;;;;;;;;;;19.10;94.10;;;;;;5137609;27;19916;-44
2022/10/31 00:04:23;;;;;;;;;;;19.10;94.10;;;;;;5137572;27;20342;-44
2022/10/31 00:06:48;;;;;;;;;;;19.10;94.10;;;;;;5137258;27;19908;-45
2022/10/31 00:09:14;;;;;;;;;;;19.10;94.10;;;;;;5137330;27;20270;-45
2022/10/31 00:11:39;;;;;;;;;;;19.10;94.10;;;;;;5137373;27;19915;-45
2022/10/31 00:14:05;;;;;;;;;;;19.10;94.10;;;;;;5137572;27;19914;-44
2022/10/31 00:16:30;;;;;;;;;;;19.10;94.10;;;;;;5137499;27;19907;-45
2022/10/31 00:18:57;;;;;;;;;;;19.10;94.10;;;;;;5137220;27;19907;-48
2022/10/31 00:21:24;;;;;;;;;;;19.10;94.10;;;;;;5137249;27;19930;-44
2022/10/31 00:23:49;;;;;;;;;;;19.10;94.10;;;;;;5137182;27;19908;-45
2022/10/31 00:26:15;;;;;;;;;;;19.10;94.10;;;;;;5137322;27;19907;-47
2022/10/31 00:28:40;;;;;;;;;;;19.10;94.10;;;;;;5137309;27;19962;-45
2022/10/31 00:31:07;;;;;;;;;;;19.10;94.10;;;;;;5137213;27;20002;-47
2022/10/31 00:33:34;;;;;;;;;;;19.10;94.30;;;;;;5136941;27;19908;-47
2022/10/31 00:35:59;;;;;;;;;;;19.10;94.10;;;;;;5137115;27;19908;-46
2022/10/31 00:38:25;;;;;;;;;;;19.00;94.10;;;;;;5136857;27;19908;-47
2022/10/31 00:40:50;;;;;;;;;;;19.00;94.10;;;;;;5137131;27;20009;-45
2022/10/31 00:43:16;;;;;;;;;;;19.00;94.10;;;;;;5137097;27;19915;-44
2022/10/31 00:45:42;;;;;;;;;;;19.00;94.10;;;;;;5136786;27;19907;-44
2022/10/31 00:48:08;;;;;;;;;;;19.10;94.10;;;;;;5136645;27;19976;-47
2022/10/31 00:50:33;;;;;;;;;;;19.00;94.10;;;;;;5136992;27;20353;-43
2022/10/31 00:52:59;;;;;;;;;;;19.00;94.10;;;;;;5136960;27;19962;-43
2022/10/31 00:55:24;;;;;;;;;;;19.00;94.10;;;;;;5136848;27;20424;-45
2022/10/31 00:57:50;;;;;;;;;;;19.00;94.10;;;;;;5136563;27;20362;-44
2022/10/31 01:00:15;;;;;;;;;;;19.00;94.10;;;;;;5136764;27;19907;-45
2022/10/31 01:02:41;;;;;;;;;;;19.00;94.10;;;;;;5136729;27;19908;-46
2022/10/31 01:05:06;;;;;;;;;;;19.10;94.10;;;;;;5136346;27;19994;-45
2022/10/31 01:07:35;;;;;;;;;;;19.00;94.10;;;;;;5136539;27;19925;-44
2022/10/31 01:10:00;;;;;;;;;;;19.00;94.10;;;;;;5136271;27;19912;-44
2022/10/31 01:12:26;;;;;;;;;;;19.00;94.10;;;;;;5136517;27;19914;-44
2022/10/31 01:14:51;;;;;;;;;;;19.10;94.10;;;;;;5136855;27;19907;-44
2022/10/31 01:17:17;;;;;;;;;;;19.00;94.10;;;;;;5136153;27;19908;-44
2022/10/31 01:19:42;;;;;;;;;;;19.00;94.10;;;;;;5136389;27;20003;-44
2022/10/31 01:22:08;;;;;;;;;;;19.00;94.10;;;;;;5136308;27;19907;-48
2022/10/31 01:24:33;;;;;;;;;;;19.00;94.10;;;;;;5136014;27;19907;-44
2022/10/31 01:26:59;;;;;;;;;;;19.00;94.10;;;;;;5135887;27;19990;-48
2022/10/31 01:29:24;;;;;;;;;;;19.00;94.10;;;;;;5135774;27;19962;-44
2022/10/31 01:31:50;;;;;;;;;;;19.00;94.10;;;;;;5136177;27;20368;-44
2022/10/31 01:34:16;;;;;;;;;;;19.00;94.10;;;;;;5136102;27;19907;-46
2022/10/31 01:36:42;;;;;;;;;;;19.00;94.10;;;;;;5136088;27;19908;-47
2022/10/31 01:39:09;;;;;;;;;;;19.00;94.10;;;;;;5117274;27;19908;-44
2022/10/31 01:41:37;;;;;;;;;;;19.00;94.10;;;;;;5136019;27;19911;-47
2022/10/31 01:44:12;;;;;;;;;;;19.00;94.10;;;;;;5136031;27;20011;-48
2022/10/31 01:46:39;;;;;;;;;;;19.00;94.10;;;;;;5135495;27;20361;-48
2022/10/31 01:49:09;;;;;;;;;;;19.00;94.10;;;;;;5135591;27;19916;-48
2022/10/31 01:51:36;;;;;;;;;;;19.00;94.10;;;;;;5116404;27;20354;-45
2022/10/31 01:54:04;;;;;;;;;;;19.10;94.10;;;;;;5117289;27;19907;-46
2022/10/31 01:56:30;;;;;;;;;;;19.00;94.10;;;;;;5135533;27;19911;-47
2022/10/31 01:58:57;;;;;;;;;;;19.00;94.10;;;;;;5135693;27;19960;-47
2022/10/31 02:01:22;;;;;;;;;;;19.00;94.10;;;;;;5135583;27;19958;-47
2022/10/31 02:03:48;;;;;;;;;;;19.00;94.10;;;;;;5116884;27;20262;-47
2022/10/31 02:06:20;;;;;;;;;;;19.00;94.00;;;;;;5135248;27;19952;-49
2022/10/31 02:08:46;;;;;;;;;;;19.00;94.10;;;;;;5135079;27;19919;-48
2022/10/31 02:11:11;;;;;;;;;;;19.00;94.00;;;;;;5135142;27;19993;-49
2022/10/31 02:13:37;;;;;;;;;;;19.10;94.10;;;;;;5135435;27;19942;-47
2022/10/31 02:16:02;;;;;;;;;;;19.00;94.10;;;;;;5135137;27;19912;-49
2022/10/31 02:18:29;;;;;;;;;;;19.00;94.10;;;;;;5117011;28;19907;-46
2022/10/31 02:21:03;;;;;;;;;;;19.00;94.10;;;;;;5135357;27;19907;-45
2022/10/31 02:23:32;;;;;;;;;;;19.00;94.10;;;;;;5135328;27;19911;-46
2022/10/31 02:26:16;;;;;;;;;;;19.00;94.10;;;;;;5135003;27;19950;-45
2022/10/31 02:28:54;;;;;;;;;;;19.00;94.10;;;;;;5135237;27;20010;-44
2022/10/31 02:31:34;;;;;;;;;;;19.00;94.10;;;;;;5135318;27;19952;-45
2022/10/31 02:34:12;;;;;;;;;;;19.00;94.30;;;;;;5134940;28;20365;-44
2022/10/31 02:36:43;;;;;;;;;;;19.00;94.10;;;;;;5135287;28;19907;-45
2022/10/31 02:39:12;;;;;;;;;;;19.00;94.10;;;;;;5134835;28;19911;-45
2022/10/31 02:41:45;;;;;;;;;;;19.00;94.10;;;;;;5135509;28;19908;-45
2022/10/31 02:44:24;;;;;;;;;;;19.00;94.10;;;;;;5135135;28;20069;-46
2022/10/31 02:46:55;;;;;;;;;;;19.10;94.10;;;;;;5135056;28;19908;-44
2022/10/31 02:49:39;;;;;;;;;;;19.00;94.10;;;;;;5134953;28;20358;-45
2022/10/31 02:52:18;;;;;;;;;;;19.00;94.10;;;;;;5135064;28;19946;-45
2022/10/31 02:54:44;;;;;;;;;;;19.00;94.10;;;;;;5134995;28;19915;-45
2022/10/31 02:57:09;;;;;;;;;;;19.00;94.10;;;;;;5134917;28;20269;-44
2022/10/31 02:59:37;;;;;;;;;;;19.00;94.00;;;;;;5134635;28;19907;-48
2022/10/31 03:02:23;;;;;;;;;;;19.00;94.10;;;;;;5136191;27;19915;-45
2022/10/31 03:05:10;;;;;;;;;;;19.00;94.10;;;;;;5139058;27;20361;-44
2022/10/31 03:07:36;;;;;;;;;;;19.00;94.10;;;;;;5138776;27;19919;-46
2022/10/31 03:10:04;;;;;;;;;;;19.00;94.10;;;;;;5120498;27;19948;-44
2022/10/31 03:12:50;;;;;;;;;;;19.00;94.10;;;;;;5138856;27;20007;-43
2022/10/31 03:15:30;;;;;;;;;;;19.00;94.10;;;;;;5138781;27;19935;-44
2022/10/31 03:17:56;;;;;;;;;;;19.00;94.10;;;;;;5138382;27;19907;-44
2022/10/31 03:20:23;;;;;;;;;;;19.00;94.10;;;;;;5138753;27;19914;-44
2022/10/31 03:22:49;;;;;;;;;;;19.00;94.10;;;;;;5138670;27;20002;-44
2022/10/31 03:25:16;;;;;;;;;;;19.00;94.10;;;;;;5138331;27;19942;-43
2022/10/31 03:27:43;;;;;;;;;;;19.00;94.10;;;;;;5138612;27;19922;-44
2022/10/31 03:30:08;;;;;;;;;;;19.00;94.10;;;;;;5138847;27;20281;-45
2022/10/31 03:32:36;;;;;;;;;;;19.00;94.10;;;;;;5138200;27;19915;-44
2022/10/31 03:35:03;;;;;;;;;;;19.00;94.10;;;;;;5138377;27;19915;-46
2022/10/31 03:37:30;;;;;;;;;;;19.00;94.20;;;;;;5138298;27;19918;-44
2022/10/31 03:39:55;;;;;;;;;;;19.00;94.10;;;;;;5138708;27;19914;-43
2022/10/31 03:42:23;;;;;;;;;;;19.00;94.20;;;;;;5138294;27;19907;-44
2022/10/31 03:44:57;;;;;;;;;;;19.00;94.10;;;;;;5138293;27;19914;-44
2022/10/31 03:47:23;;;;;;;;;;;19.00;94.10;;;;;;5138100;27;20278;-48
2022/10/31 03:49:49;;;;;;;;;;;18.90;94.10;;;;;;5138122;27;19911;-46
2022/10/31 03:52:19;;;;;;;;;;;19.00;94.20;;;;;;5138100;27;19908;-45
2022/10/31 03:54:46;;;;;;;;;;;19.00;94.10;;;;;;5137815;27;19915;-46
2022/10/31 03:57:12;;;;;;;;;;;18.90;94.10;;;;;;5138038;27;19915;-45
2022/10/31 03:59:42;;;;;;;;;;;19.00;94.10;;;;;;5137973;27;19917;-46
2022/10/31 04:02:09;;;;;;;;;;;19.00;94.10;;;;;;5137600;27;19907;-48
2022/10/31 04:04:35;;;;;;;;;;;19.00;94.10;;;;;;5119485;27;19908;-45
2022/10/31 04:07:02;;;;;;;;;;;19.00;94.10;;;;;;5137223;27;20020;-44
2022/10/31 04:09:28;;;;;;;;;;;19.00;94.10;;;;;;5137695;27;19915;-44
2022/10/31 04:11:55;;;;;;;;;;;19.00;94.10;;;;;;5137629;27;19907;-46
2022/10/31 04:14:22;;;;;;;;;;;19.00;94.10;;;;;;5136532;27;20006;-45
2022/10/31 04:16:47;;;;;;;;;;;19.00;94.10;;;;;;5137563;27;19913;-45
2022/10/31 04:19:14;;;;;;;;;;;19.00;94.10;;;;;;5137600;27;19907;-46
2022/10/31 04:21:39;;;;;;;;;;;19.00;94.10;;;;;;5137558;27;19912;-44
2022/10/31 04:24:05;;;;;;;;;;;19.00;94.10;;;;;;5137475;27;19960;-44
2022/10/31 04:26:30;;;;;;;;;;;19.00;94.10;;;;;;5137435;27;19953;-44
2022/10/31 04:28:56;;;;;;;;;;;18.90;94.10;;;;;;5137033;27;19919;-45
2022/10/31 04:31:21;;;;;;;;;;;19.00;94.10;;;;;;5137355;27;19953;-43
2022/10/31 04:33:47;;;;;;;;;;;19.00;94.10;;;;;;5137258;27;19908;-45
2022/10/31 04:36:12;;;;;;;;;;;18.90;94.10;;;;;;5137203;27;19912;-44
2022/10/31 04:38:37;;;;;;;;;;;19.00;94.10;;;;;;5136927;27;19907;-47
2022/10/31 04:41:03;;;;;;;;;;;19.00;94.10;;;;;;5137124;27;20319;-44
2022/10/31 04:43:28;;;;;;;;;;;18.90;94.10;;;;;;5136802;27;19919;-46
2022/10/31 04:45:54;;;;;;;;;;;19.00;94.10;;;;;;5136733;27;19907;-44
2022/10/31 04:48:19;;;;;;;;;;;18.90;94.10;;;;;;5137025;27;19920;-44
2022/10/31 04:50:45;;;;;;;;;;;18.90;94.10;;;;;;5136658;27;20254;-45
2022/10/31 04:53:10;;;;;;;;;;;18.90;94.10;;;;;;5136761;27;19908;-45
2022/10/31 04:55:36;;;;;;;;;;;19.00;94.10;;;;;;5137181;27;19915;-44
2022/10/31 04:58:02;;;;;;;;;;;18.90;94.10;;;;;;5136809;27;19914;-44
2022/10/31 05:00:27;;;;;;;;;;;18.90;94.10;;;;;;5136667;27;19954;-44
2022/10/31 05:02:54;;;;;;;;;;;18.90;94.10;;;;;;5136427;27;20350;-46
2022/10/31 05:05:21;;;;;;;;;;;19.00;94.10;;;;;;5118207;27;19911;-44
2022/10/31 05:07:47;;;;;;;;;;;18.90;94.10;;;;;;5136344;27;19979;-44
2022/10/31 05:10:14;;;;;;;;;;;18.90;94.10;;;;;;5136223;27;19930;-44
2022/10/31 05:12:50;;;;;;;;;;;19.00;94.10;;;;;;5136049;27;20286;-45
2022/10/31 05:15:16;;;;;;;;;;;19.00;94.10;;;;;;5135831;27;19998;-45
2022/10/31 05:17:42;;;;;;;;;;;18.90;94.10;;;;;;5136049;27;19958;-46
2022/10/31 05:20:07;;;;;;;;;;;18.90;94.10;;;;;;5135917;27;19907;-45
2022/10/31 05:22:33;;;;;;;;;;;18.90;94.10;;;;;;5136203;27;19907;-45
2022/10/31 05:24:58;;;;;;;;;;;18.90;94.10;;;;;;5135668;27;20258;-44
2022/10/31 05:27:24;;;;;;;;;;;18.90;94.10;;;;;;5134537;27;19908;-45
2022/10/31 05:29:49;;;;;;;;;;;18.90;94.10;;;;;;5136020;27;19950;-45
2022/10/31 05:32:15;;;;;;;;;;;18.90;94.10;;;;;;5135680;27;19914;-46
2022/10/31 05:34:40;;;;;;;;;;;18.90;94.20;;;;;;5135947;27;20005;-44
2022/10/31 05:37:06;;;;;;;;;;;18.90;94.20;;;;;;5135843;27;19908;-45
2022/10/31 05:39:31;;;;;;;;;;;18.90;94.10;;;;;;5135471;27;19907;-45
2022/10/31 05:41:57;;;;;;;;;;;18.90;94.20;;;;;;5135668;27;20226;-45
2022/10/31 05:44:22;;;;;;;;;;;18.90;94.10;;;;;;5136176;27;19907;-43
2022/10/31 05:46:48;;;;;;;;;;;18.90;94.10;;;;;;5135537;27;19908;-45
2022/10/31 05:49:13;;;;;;;;;;;18.90;94.20;;;;;;5135338;27;20272;-48
2022/10/31 05:51:39;;;;;;;;;;;18.90;94.10;;;;;;5135666;27;19908;-46
2022/10/31 05:54:04;;;;;;;;;;;18.90;94.20;;;;;;5117550;27;20006;-48
2022/10/31 05:56:30;;;;;;;;;;;18.90;94.10;;;;;;5135342;27;20350;-49
2022/10/31 05:58:55;;;;;;;;;;;18.90;94.20;;;;;;5135197;27;20285;-44
2022/10/31 06:01:20;;;;;;;;;;;18.90;94.10;;;;;;5135141;27;19908;-46
2022/10/31 06:03:46;;;;;;;;;;;18.90;94.20;;;;;;5135431;27;19973;-44
2022/10/31 06:06:11;;;;;;;;;;;18.80;94.20;;;;;;5135749;27;19908;-49
2022/10/31 06:08:37;;;;;;;;;;;18.90;94.20;;;;;;5097947;28;20358;-47
2022/10/31 06:11:02;;;;;;;;;;;18.90;94.20;;;;;;5094460;28;19908;-46
2022/10/31 06:13:28;;;;;;;;;;;18.90;94.20;;;;;;5094154;28;19908;-47
2022/10/31 06:15:53;;;;;;;;;;;18.90;94.20;;;;;;5094109;28;19930;-45
2022/10/31 06:18:19;;;;;;;;;;;18.90;94.20;;;;;;5094175;28;19908;-48
2022/10/31 06:20:44;;;;;;;;;;;18.90;94.20;;;;;;5092956;28;20049;-48
2022/10/31 06:23:10;;;;;;;;;;;18.80;94.20;;;;;;5093009;28;20286;-45
2022/10/31 06:25:35;;;;;;;;;;;18.90;94.20;;;;;;5093889;28;19908;-45
2022/10/31 06:28:01;;;;;;;;;;;18.80;94.20;;;;;;5092632;28;19916;-45
2022/10/31 06:30:26;;;;;;;;;;;18.80;94.30;;;;;;5094144;28;19912;-44
2022/10/31 06:32:52;;;;;;;;;;;18.80;94.20;;;;;;5093883;28;19908;-45
2022/10/31 06:35:17;;;;;;;;;;;18.90;94.20;;;;;;5092911;28;20018;-47
2022/10/31 06:37:43;;;;;;;;;;;18.90;94.20;;;;;;5099450;28;20271;-46
2022/10/31 06:40:08;;;;;;;;;;;18.80;94.20;;;;;;5100389;28;19998;-46
2022/10/31 06:42:34;;;;;;;;;;;18.80;94.20;;;;;;5100538;28;19915;-43
2022/10/31 06:44:59;;;;;;;;;;;18.90;94.20;;;;;;5099434;28;19912;-46
2022/10/31 06:47:25;;;;;;;;;;;18.90;94.20;;;;;;5100250;28;19912;-43
2022/10/31 06:49:50;;;;;;;;;;;18.80;94.20;;;;;;5100675;28;20321;-44
2022/10/31 06:52:16;;;;;;;;;;;18.90;94.30;;;;;;5100714;28;19908;-45
2022/10/31 06:54:41;;;;;;;;;;;18.90;94.20;;;;;;5100684;28;19915;-48
2022/10/31 06:57:07;;;;;;;;;;;18.90;94.20;;;;;;5100213;28;19915;-44
2022/10/31 06:59:32;;;;;;;;;;;18.90;94.20;;;;;;5100408;28;19968;-47
2022/10/31 07:01:58;;;;;;;;;;;18.90;94.10;;;;;;5100310;28;19908;-47
2022/10/31 07:04:24;;;;;;;;;;;18.90;94.10;;;;;;5100635;28;19912;-44
2022/10/31 07:06:52;;;;;;;;;;;18.90;94.10;;;;;;5100569;27;19951;-43
2022/10/31 07:09:18;;;;;;;;;;;18.90;94.00;;;;;;5141416;27;20010;-47
2022/10/31 07:11:44;;;;;;;;;;;18.90;94.10;;;;;;5141484;27;19994;-43
2022/10/31 07:14:09;;;;;;;;;;;19.00;94.10;;;;;;5141397;27;19922;-44
2022/10/31 07:16:35;;;;;;;;;;;18.90;94.00;;;;;;5122405;27;19908;-43
2022/10/31 07:19:00;;;;;;;;;;;19.00;94.10;;;;;;5141086;27;20339;-47
2022/10/31 07:21:25;;;;;;;;;;;19.00;94.10;;;;;;5139866;27;19914;-44
2022/10/31 07:23:51;;;;;;;;;;;19.00;94.10;;;;;;5141341;27;19907;-44
2022/10/31 07:26:16;;;;;;;;;;;19.00;94.00;;;;;;5141380;27;19912;-45
2022/10/31 07:28:42;;;;;;;;;;;19.00;94.00;;;;;;5140898;27;19962;-45
2022/10/31 07:31:07;;;;;;;;;;;19.00;94.00;;;;;;5140914;27;19959;-43
2022/10/31 07:33:33;;;;;;;;;;;19.00;94.00;;;;;;5141404;27;19908;-43
2022/10/31 07:35:59;;;;;;;;;;;19.00;94.00;;;;;;5141019;27;20376;-44
2022/10/31 07:38:24;;;;;;;;;;;19.00;94.00;;;;;;5140841;27;20270;-45
2022/10/31 07:40:54;;;;;;;;;;;19.00;94.00;;;;;;5141015;27;19911;-43
2022/10/31 07:43:20;;;;;;;;;;;19.00;94.00;;;;;;5122661;27;20311;-44
2022/10/31 07:45:52;;;;;;;;;;;19.00;93.90;;;;;;5141121;27;19959;-45
2022/10/31 07:48:17;;;;;;;;;;;19.00;93.90;;;;;;5121101;27;19969;-44
2022/10/31 07:50:43;;;;;;;;;;;19.00;93.90;;;;;;5137340;27;19946;-43
2022/10/31 07:53:09;;;;;;;;;;;19.00;93.90;;;;;;5137631;27;19908;-48
2022/10/31 07:55:35;;;;;;;;;;;19.10;93.90;;;;;;5137318;27;19907;-44
2022/10/31 07:58:01;;;;;;;;;;;19.10;93.90;;;;;;5137371;27;19912;-44
2022/10/31 08:00:27;;;;;;;;;;;19.10;93.90;;;;;;5137509;27;19915;-43
2022/10/31 08:02:56;;;;;;;;;;;19.10;93.90;;;;;;5137670;27;19908;-45
2022/10/31 08:05:22;;;;;;;;;;;19.10;93.80;;;;;;5137577;27;19954;-46
2022/10/31 08:07:47;;;;;;;;;;;19.10;93.80;;;;;;5137246;27;19970;-46
2022/10/31 08:10:13;;;;;;;;;;;19.10;93.80;;;;;;5137205;27;19912;-44
2022/10/31 08:12:38;;;;;;;;;;;19.10;93.80;;;;;;5137341;27;19908;-43
2022/10/31 08:15:04;;;;;;;;;;;19.10;93.80;;;;;;5137086;27;19956;-43
2022/10/31 08:17:29;;;;;;;;;;;19.10;93.80;;;;;;5137332;27;19941;-47
2022/10/31 08:19:55;;;;;;;;;;;19.10;93.80;;;;;;5137012;27;19908;-45
2022/10/31 08:22:20;;;;;;;;;;;19.10;93.90;;;;;;5137181;27;19907;-44
2022/10/31 08:24:46;;;;;;;;;;;19.10;93.80;;;;;;5137253;27;19908;-44
2022/10/31 08:27:11;;;;;;;;;;;19.10;93.90;;;;;;5137047;27;19908;-43
2022/10/31 08:29:37;;;;;;;;;;;19.10;93.90;;;;;;5118749;27;20389;-48
2022/10/31 08:32:02;;;;;;;;;;;19.10;93.80;;;;;;5136860;27;19907;-46
2022/10/31 08:34:28;;;;;;;;;;;19.10;93.90;;;;;;5136676;27;19915;-43
2022/10/31 08:36:53;;;;;;;;;;;19.10;93.90;;;;;;5136968;27;19907;-44
2022/10/31 08:39:19;;;;;;;;;;;19.10;93.90;;;;;;5136926;27;19951;-43
2022/10/31 08:41:44;;;;;;;;;;;19.10;93.90;;;;;;5137150;27;19907;-44
2022/10/31 08:44:10;;;;;;;;;;;19.10;93.80;;;;;;5136496;27;19911;-44
2022/10/31 08:46:35;;;;;;;;;;;19.10;93.80;;;;;;5137077;27;20406;-47
2022/10/31 08:49:01;;;;;;;;;;;19.10;93.80;;;;;;5136306;27;19915;-47
2022/10/31 08:51:26;;;;;;;;;;;19.10;93.90;;;;;;5136683;27;19908;-43
2022/10/31 08:53:52;;;;;;;;;;;19.10;93.80;;;;;;5136158;27;19908;-45
2022/10/31 08:56:17;;;;;;;;;;;19.10;93.90;;;;;;5136521;27;19907;-44
2022/10/31 08:58:43;;;;;;;;;;;19.10;93.80;;;;;;5136116;27;19994;-44
2022/10/31 09:01:08;;;;;;;;;;;19.10;93.90;;;;;;5135614;27;20376;-47
2022/10/31 09:03:34;;;;;;;;;;;19.10;93.90;;;;;;5136283;27;19907;-45
2022/10/31 09:06:02;;;;;;;;;;;19.10;93.90;;;;;;5136301;27;20358;-44
2022/10/31 09:08:29;;;;;;;;;;;19.10;93.90;;;;;;5136021;27;19923;-46
2022/10/31 09:10:56;;;;;;;;;;;19.10;93.90;;;;;;5136244;27;19915;-43
2022/10/31 09:13:21;;;;;;;;;;;19.10;93.90;;;;;;5136197;27;19907;-44
2022/10/31 09:15:47;;;;;;;;;;;19.10;93.90;;;;;;5136122;27;19914;-44
2022/10/31 09:18:15;;;;;;;;;;;19.10;93.90;;;;;;5136009;27;19914;-43
2022/10/31 09:20:41;;;;;;;;;;;19.10;93.90;;;;;;5136042;27;19978;-45
2022/10/31 09:23:10;;;;;;;;;;;19.10;93.90;;;;;;5136002;27;19907;-46
2022/10/31 09:25:35;;;;;;;;;;;19.10;93.90;;;;;;5135957;27;19908;-43
2022/10/31 09:28:02;;;;;;;;;;;19.10;93.90;;;;;;5135609;27;20327;-43
2022/10/31 09:30:29;;;;;;;;;;;19.10;93.90;;;;;;5135498;27;19914;-43
2022/10/31 09:32:58;;;;;;;;;;;19.10;93.90;;;;;;5135506;27;19938;-43
2022/10/31 09:35:24;;;;;;;;;;;19.10;93.90;;;;;;5135523;27;20274;-45
2022/10/31 09:38:06;;;;;;;;;;;19.10;93.90;;;;;;5135737;27;19914;-43
2022/10/31 09:40:41;;;;;;;;;;;19.20;93.90;;;;;;5135637;27;19915;-48
2022/10/31 09:43:07;;;;;;;;;;;19.20;93.90;;;;;;5117285;27;19915;-44
2022/10/31 09:45:32;;;;;;;;;;;19.20;93.90;;;;;;5135160;27;19907;-46
2022/10/31 09:48:03;;;;;;;;;;;19.10;93.90;;;;;;5135201;27;19915;-46
2022/10/31 09:50:34;;;;;;;;;;;19.20;93.90;;;;;;5135401;27;20277;-44
2022/10/31 09:53:04;;;;;;;;;;;19.20;93.90;;;;;;5135585;27;20303;-45
2022/10/31 09:55:34;;;;;;;;;;;19.10;93.90;;;;;;5135599;27;19917;-48
2022/10/31 09:58:01;;;;;;;;;;;19.10;93.80;;;;;;5134960;27;19912;-47
2022/10/31 10:00:26;;;;;;;;;;;19.20;93.90;;;;;;5135293;27;19914;-45
2022/10/31 10:03:14;;;;;;;;;;;19.10;93.80;;;;;;5135322;27;19907;-47
2022/10/31 10:05:43;;;;;;;;;;;19.20;93.90;;;;;;5116415;27;19912;-45
2022/10/31 10:08:12;;;;;;;;;;;19.10;93.90;;;;;;5135333;27;19988;-47
2022/10/31 10:10:44;;;;;;;;;;;19.20;93.90;;;;;;5116385;27;19914;-44
2022/10/31 10:13:15;;;;;;;;;;;19.10;93.90;;;;;;5134713;27;19907;-45
2022/10/31 10:15:41;;;;;;;;;;;19.20;93.90;;;;;;5135030;27;19911;-44
2022/10/31 10:18:18;;;;;;;;;;;19.20;93.90;;;;;;5134986;27;19962;-46
2022/10/31 10:20:55;;;;;;;;;;;19.20;93.90;;;;;;5134676;27;19907;-48
2022/10/31 10:23:35;;;;;;;;;;;19.20;93.90;;;;;;5134691;27;20339;-43
2022/10/31 10:26:03;;;;;;;;;;;19.10;94.10;;;;;;5134805;27;19911;-42
2022/10/31 10:28:33;;;;;;;;;;;19.20;93.90;;;;;;5134615;27;19915;-45
2022/10/31 10:31:16;;;;;;;;;;;19.20;93.90;;;;;;5134916;27;19907;-46
2022/10/31 10:33:51;;;;;;;;;;;19.20;93.90;;;;;;5134684;27;20373;-48
2022/10/31 10:36:20;;;;;;;;;;;19.20;93.90;;;;;;5135080;28;19914;-43
2022/10/31 10:38:58;;;;;;;;;;;19.20;93.90;;;;;;5135015;28;19979;-47
2022/10/31 10:41:24;;;;;;;;;;;19.20;93.90;;;;;;5134590;28;19907;-45
2022/10/31 10:43:50;;;;;;;;;;;19.10;93.90;;;;;;5134800;28;19908;-46
2022/10/31 10:49:15;;;;;;;;;;;19.20;93.90;;;;;;5134487;28;19922;-42
2022/10/31 10:51:44;;;;;;;;;;;19.20;93.90;;;;;;5134722;28;19911;-45
2022/10/31 10:54:34;;;;;;;;;;;19.20;93.90;;;;;;5134611;28;19907;-43
2022/10/31 10:57:06;;;;;;;;;;;19.20;93.90;;;;;;5134703;28;20005;-43
2022/10/31 10:59:31;;;;;;;;;;;19.20;93.90;;;;;;5134600;28;19938;-42
2022/10/31 11:01:58;;;;;;;;;;;19.20;93.90;;;;;;5134276;28;19907;-45
2022/10/31 11:04:34;;;;;;;;;;;19.20;93.90;;;;;;5134696;28;19919;-43
2022/10/31 11:07:04;;;;;;;;;;;19.20;93.90;;;;;;5134064;28;19908;-44
2022/10/31 11:09:31;;;;;;;;;;;19.10;93.90;;;;;;5134606;28;19919;-44
2022/10/31 11:11:57;;;;;;;;;;;19.10;93.90;;;;;;5134510;28;19914;-44
2022/10/31 11:14:23;;;;;;;;;;;19.20;93.90;;;;;;5115932;28;19907;-43
2022/10/31 11:16:51;;;;;;;;;;;19.20;93.90;;;;;;5134644;28;20002;-43
2022/10/31 11:19:26;;;;;;;;;;;19.20;93.90;;;;;;5134191;28;19907;-46
2022/10/31 11:21:52;;;;;;;;;;;19.20;93.90;;;;;;5134521;28;19908;-44
2022/10/31 11:24:22;;;;;;;;;;;19.20;93.90;;;;;;5119740;27;19952;-46
2022/10/31 11:26:49;;;;;;;;;;;19.20;94.10;;;;;;5138205;27;19907;-46
2022/10/31 11:29:22;;;;;;;;;;;19.20;93.90;;;;;;5137853;27;20342;-43
2022/10/31 11:31:49;;;;;;;;;;;19.20;93.90;;;;;;5137826;27;20274;-43
2022/10/31 11:34:27;;;;;;;;;;;19.20;93.90;;;;;;5138259;27;19990;-43
2022/10/31 11:36:53;;;;;;;;;;;19.20;93.90;;;;;;5138042;27;19914;-46
2022/10/31 11:39:23;;;;;;;;;;;19.20;93.90;;;;;;5137576;27;20242;-44
2022/10/31 11:41:50;;;;;;;;;;;19.20;93.90;;;;;;5137605;27;19908;-42
2022/10/31 11:44:18;;;;;;;;;;;19.20;93.90;;;;;;5138048;27;19914;-44
2022/10/31 11:46:48;;;;;;;;;;;19.20;93.90;;;;;;5137545;27;20289;-43
2022/10/31 11:49:19;;;;;;;;;;;19.10;93.90;;;;;;5137795;27;20242;-44
2022/10/31 11:51:48;;;;;;;;;;;19.20;93.90;;;;;;5137467;27;20006;-45
2022/10/31 11:54:22;;;;;;;;;;;19.20;93.90;;;;;;5138168;27;19908;-45
2022/10/31 11:56:47;;;;;;;;;;;19.20;93.90;;;;;;5137516;27;19907;-43
2022/10/31 11:59:16;;;;;;;;;;;19.20;93.90;;;;;;5137224;27;20341;-44
2022/10/31 12:01:46;;;;;;;;;;;19.20;93.90;;;;;;5137506;27;19960;-45
2022/10/31 12:04:12;;;;;;;;;;;19.20;93.90;;;;;;5137053;27;19908;-47
2022/10/31 12:06:49;;;;;;;;;;;19.20;93.90;;;;;;5136918;27;19915;-45
2022/10/31 12:09:18;;;;;;;;;;;19.20;93.90;;;;;;5137417;27;19972;-46
2022/10/31 12:12:02;;;;;;;;;;;19.20;93.90;;;;;;5137298;27;19907;-45
2022/10/31 12:14:35;;;;;;;;;;;19.20;93.90;;;;;;5137340;27;19908;-45
2022/10/31 12:17:05;;;;;;;;;;;19.20;93.90;;;;;;5137108;27;19973;-46
2022/10/31 12:19:30;;;;;;;;;;;19.20;93.90;;;;;;5136897;27;19918;-46
2022/10/31 12:22:13;;;;;;;;;;;19.20;93.90;;;;;;5137276;27;19907;-45
2022/10/31 12:24:44;;;;;;;;;;;19.20;93.90;;;;;;5137124;27;19907;-47
2022/10/31 12:27:28;;;;;;;;;;;19.10;93.90;;;;;;5136768;27;19915;-43
2022/10/31 12:29:53;;;;;;;;;;;19.20;93.90;;;;;;5136524;27;19943;-44
2022/10/31 12:32:32;;;;;;;;;;;19.20;93.90;;;;;;5136713;27;19908;-45
2022/10/31 12:35:07;;;;;;;;;;;19.20;93.90;;;;;;5135637;27;19915;-47
2022/10/31 12:37:51;;;;;;;;;;;19.20;93.90;;;;;;5136728;27;19908;-47
2022/10/31 12:40:33;;;;;;;;;;;19.20;93.90;;;;;;5136506;27;19912;-45
2022/10/31 12:43:01;;;;;;;;;;;19.20;93.90;;;;;;5118131;27;19930;-46
2022/10/31 12:45:36;;;;;;;;;;;19.20;93.90;;;;;;5136454;27;20056;-46
2022/10/31 12:48:01;;;;;;;;;;;19.10;93.90;;;;;;5136579;27;19915;-47
2022/10/31 12:50:31;;;;;;;;;;;19.10;93.90;;;;;;5136255;27;20366;-47
2022/10/31 12:53:15;;;;;;;;;;;19.20;93.90;;;;;;5136496;27;19914;-46
2022/10/31 12:55:46;;;;;;;;;;;19.20;93.90;;;;;;5136908;27;19911;-43
2022/10/31 12:58:21;;;;;;;;;;;19.20;93.90;;;;;;5136259;27;19954;-44
2022/10/31 13:00:48;;;;;;;;;;;19.20;93.90;;;;;;5136003;27;20354;-45
2022/10/31 13:03:33;;;;;;;;;;;19.10;93.90;;;;;;5136085;27;20419;-45
2022/10/31 13:06:03;;;;;;;;;;;19.10;93.90;;;;;;5136288;27;19907;-48
2022/10/31 13:08:33;;;;;;;;;;;19.20;93.90;;;;;;5136177;27;19920;-45
2022/10/31 13:11:01;;;;;;;;;;;19.20;93.90;;;;;;5135934;27;20047;-47
2022/10/31 13:13:32;;;;;;;;;;;19.20;93.90;;;;;;5135705;27;20270;-44
2022/10/31 13:16:00;;;;;;;;;;;19.10;93.90;;;;;;5135915;27;19907;-47
2022/10/31 13:18:32;;;;;;;;;;;19.10;93.90;;;;;;5134488;27;20403;-48
2022/10/31 13:20:58;;;;;;;;;;;19.10;93.90;;;;;;5135803;27;19912;-48
2022/10/31 13:23:32;;;;;;;;;;;19.20;93.90;;;;;;5135889;27;20012;-47
2022/10/31 13:25:59;;;;;;;;;;;19.20;93.90;;;;;;5135930;27;19955;-44
2022/10/31 13:28:35;;;;;;;;;;;19.20;93.90;;;;;;5135184;27;20358;-45
2022/10/31 13:31:01;;;;;;;;;;;19.10;93.90;;;;;;5135382;27;19912;-43
2022/10/31 13:33:37;;;;;;;;;;;19.10;94.10;;;;;;5135342;27;20331;-44
2022/10/31 13:36:03;;;;;;;;;;;19.10;93.90;;;;;;5135687;27;19915;-44
2022/10/31 13:38:34;;;;;;;;;;;19.20;93.90;;;;;;5116952;27;19911;-43
2022/10/31 13:41:03;;;;;;;;;;;19.10;93.90;;;;;;5135638;27;19908;-43
2022/10/31 13:43:32;;;;;;;;;;;19.10;93.90;;;;;;5135237;27;19914;-44
2022/10/31 13:45:58;;;;;;;;;;;19.20;93.90;;;;;;5135169;27;20010;-45
2022/10/31 13:48:26;;;;;;;;;;;19.10;93.90;;;;;;5135291;27;20417;-43
2022/10/31 13:50:59;;;;;;;;;;;19.10;93.90;;;;;;5135357;27;19911;-43
2022/10/31 13:53:36;;;;;;;;;;;19.10;93.90;;;;;;5135362;27;19914;-44
2022/10/31 13:56:03;;;;;;;;;;;19.10;93.90;;;;;;5135647;27;19919;-44
2022/10/31 13:58:29;;;;;;;;;;;19.10;93.90;;;;;;5135378;27;19907;-46
2022/10/31 14:01:10;;;;;;;;;;;19.10;93.90;;;;;;5135380;27;19908;-44
2022/10/31 14:03:40;;;;;;;;;;;19.10;93.90;;;;;;5135407;27;19907;-45
2022/10/31 14:06:08;;;;;;;;;;;19.10;93.90;;;;;;5134689;27;20370;-43
2022/10/31 14:08:35;;;;;;;;;;;19.10;93.90;;;;;;5134726;27;20064;-42
2022/10/31 14:11:01;;;;;;;;;;;19.10;93.90;;;;;;5135282;27;19934;-45
2022/10/31 14:13:26;;;;;;;;;;;19.10;93.90;;;;;;5135023;27;20346;-43
2022/10/31 14:15:56;;;;;;;;;;;19.10;93.90;;;;;;5135008;27;20274;-46
2022/10/31 14:18:37;;;;;;;;;;;19.10;93.90;;;;;;5134971;27;20027;-44
2022/10/31 14:21:21;;;;;;;;;;;19.10;93.90;;;;;;5134841;27;19911;-46
2022/10/31 14:23:47;;;;;;;;;;;19.10;93.90;;;;;;5134706;27;19914;-44
2022/10/31 14:26:18;;;;;;;;;;;19.10;93.90;;;;;;5134695;27;20282;-46